OIAM  Mahshahr Airport

Add Bookmark

Iran

Status IATA
Operational MRX
Latitude Longitude
30° 33' 22" N 49° 9' 6" E
30.556200 49.151901
Local (DST + 5) UTC (GMT + 4)
Oct 31, 2014 10:23 Oct 31, 2014 06:53
Sunrise-Sunset Local UTC
Begin Civil Twilight 06:01 02:31
Sunrise 06:26 02:56
Sunset 05:27 13:57
End Civil Twilight 05:52 14:22

Current Weather

METAR Observed VFR
OIAM 310600Z 11012KT 9999 BKN040 BKN100 27/13 Q1010 Fri, Oct 31, 2014 @ 06:00 UTC
(53 Minutes ago)
Visual Flight Rules
Wind Visibility Clouds Conditions
110° at 12 knots (22 kph) 10 km or more
  • Broken at 4,000' AGL
  • Broken at 10,000' AGL
  • No significant weather
Temperatures Readings Precipitation
Current Temp 27°C (81°F)
Dewpoint 13°C (55°F)
Heat Index 27°C (81°F)
Humidity 42%
Altimeter 29.82"Hg
Sea Level Pressure 1010mb
Field Elevation 13.12'
None Recorded

Additional weather within a 92.6km radius of OIAM

Map ICAO Location
OIAG 54.4km E (067°)
OIAA 90.7km W (257°)

24 Hour Weather History

Loading
-

24 Hour Weather Graphs

Loading
-

CheckWX.com is intended as a tool to help pilots better visualize weather data. It is not intended as a substitute for an official weather briefing obtained from a Flight Service Station. CheckWX.com does not meet the FAA requirements for an official pre-flight weather briefing. Therefore, it's important that pilots still call and obtain an official FSS pre-flight weather briefing.